createdAt,value
2022-09-07T00:00:40.219Z,14.90
2022-09-07T00:03:08.401Z,14.89
2022-09-07T00:05:42.556Z,14.97
2022-09-07T00:08:12.865Z,14.95
2022-09-07T00:10:40.456Z,15.01
2022-09-07T00:13:09.056Z,15.04
2022-09-07T00:15:40.479Z,15.10
2022-09-07T00:18:08.050Z,15.08
2022-09-07T00:20:35.834Z,15.08
2022-09-07T00:23:03.337Z,15.09
2022-09-07T00:25:32.281Z,15.06
2022-09-07T00:28:00.194Z,15.03
2022-09-07T00:30:27.714Z,14.94
2022-09-07T00:32:55.151Z,14.84
2022-09-07T00:35:22.593Z,14.82
2022-09-07T00:37:50.040Z,14.82
2022-09-07T00:40:17.671Z,14.78
2022-09-07T00:42:46.469Z,14.66
2022-09-07T00:45:17.014Z,14.61
2022-09-07T00:47:53.911Z,14.57
2022-09-07T00:50:27.062Z,14.46
2022-09-07T00:52:59.333Z,14.44
2022-09-07T00:55:28.488Z,14.50
2022-09-07T00:57:58.503Z,14.39
2022-09-07T01:00:27.250Z,14.34
2022-09-07T01:02:57.755Z,14.28
2022-09-07T01:05:29.162Z,14.18
2022-09-07T01:07:57.551Z,14.11
2022-09-07T01:10:31.717Z,14.15
2022-09-07T01:13:00.617Z,14.14
2022-09-07T01:15:41.649Z,14.31
2022-09-07T01:18:16.162Z,14.14
2022-09-07T01:21:05.676Z,14.03
2022-09-07T01:24:02.204Z,14.21
2022-09-07T01:27:04.896Z,14.18
2022-09-07T01:29:40.145Z,14.11
2022-09-07T01:32:13.789Z,14.02
2022-09-07T01:34:44.380Z,13.98
2022-09-07T01:37:21.786Z,13.94
2022-09-07T01:39:55.338Z,13.97
2022-09-07T01:42:30.271Z,14.16
2022-09-07T01:45:02.562Z,14.26
2022-09-07T01:47:34.873Z,14.25
2022-09-07T01:50:08.262Z,14.19
2022-09-07T01:52:42.336Z,13.98
2022-09-07T01:55:17.749Z,13.87
2022-09-07T01:57:48.588Z,13.95
2022-09-07T02:00:19.971Z,13.83
2022-09-07T02:02:52.448Z,13.88
2022-09-07T02:05:25.720Z,13.82
2022-09-07T02:07:58.363Z,13.78
2022-09-07T02:10:32.536Z,13.82
2022-09-07T02:13:06.758Z,13.85
2022-09-07T02:15:45.445Z,13.83
2022-09-07T02:18:14.792Z,13.67
2022-09-07T02:20:47.627Z,13.58
2022-09-07T02:23:19.481Z,13.59
2022-09-07T02:25:52.003Z,13.47
2022-09-07T02:28:24.504Z,13.44
2022-09-07T02:30:53.439Z,13.50
2022-09-07T02:33:21.475Z,13.37
2022-09-07T02:35:49.138Z,13.30
2022-09-07T02:38:16.708Z,13.23
2022-09-07T02:40:44.288Z,13.18
2022-09-07T02:43:12.601Z,13.24
2022-09-07T02:45:55.501Z,13.17
2022-09-07T02:48:36.251Z,13.17
2022-09-07T02:51:12.667Z,13.01
2022-09-07T02:53:55.909Z,12.95
2022-09-07T02:56:35.704Z,13.00
2022-09-07T02:59:12.110Z,12.92
2022-09-07T03:01:50.063Z,12.85
2022-09-07T03:04:24.692Z,12.66
2022-09-07T03:06:56.104Z,12.61
2022-09-07T03:09:28.768Z,12.59
2022-09-07T03:11:56.382Z,12.52
2022-09-07T03:14:26.220Z,12.37
2022-09-07T03:16:56.772Z,12.38
2022-09-07T03:19:25.596Z,12.48
2022-09-07T03:21:53.112Z,12.54
2022-09-07T03:24:20.607Z,12.63
2022-09-07T03:26:50.421Z,12.63
2022-09-07T03:29:18.310Z,12.53
2022-09-07T03:31:46.012Z,12.34
2022-09-07T03:34:13.720Z,12.26
2022-09-07T03:36:42.639Z,12.26
2022-09-07T03:39:12.535Z,12.18
2022-09-07T03:41:40.073Z,12.18
2022-09-07T03:44:08.580Z,12.24
2022-09-07T03:46:36.152Z,12.25
2022-09-07T03:49:03.876Z,12.28
2022-09-07T03:51:31.393Z,12.33
2022-09-07T03:54:00.564Z,12.37
2022-09-07T03:56:28.082Z,12.47
2022-09-07T03:58:56.249Z,12.53
2022-09-07T04:01:26.943Z,12.53
2022-09-07T04:04:01.941Z,12.52
2022-09-07T04:06:30.429Z,12.49
2022-09-07T04:08:58.014Z,12.47
2022-09-07T04:11:26.838Z,12.50
2022-09-07T04:13:54.320Z,12.47
2022-09-07T04:16:23.406Z,12.42
2022-09-07T04:18:51.398Z,12.39
2022-09-07T04:21:19.232Z,12.44
2022-09-07T04:23:47.014Z,12.46
2022-09-07T04:26:16.488Z,12.50
2022-09-07T04:28:45.611Z,12.49
2022-09-07T04:31:13.872Z,12.48
2022-09-07T04:33:41.511Z,12.41
2022-09-07T04:36:09.971Z,12.37
2022-09-07T04:38:39.790Z,12.37
2022-09-07T04:41:09.403Z,12.39
2022-09-07T04:43:38.728Z,12.36
2022-09-07T04:46:09.725Z,12.33
2022-09-07T04:48:37.563Z,12.31
2022-09-07T04:51:06.515Z,12.34
2022-09-07T04:53:34.308Z,12.31
2022-09-07T04:56:02.147Z,12.37
2022-09-07T04:58:30.001Z,12.40
2022-09-07T05:01:01.817Z,12.32
2022-09-07T05:03:31.100Z,12.34
2022-09-07T05:06:01.507Z,12.32
2022-09-07T05:08:29.100Z,12.36
2022-09-07T05:10:57.649Z,12.31
2022-09-07T05:13:25.457Z,12.42
2022-09-07T05:15:52.882Z,12.47
2022-09-07T05:18:21.172Z,12.40
2022-09-07T05:20:50.011Z,12.42
2022-09-07T05:23:17.575Z,12.40
2022-09-07T05:25:46.237Z,12.41
2022-09-07T05:28:19.102Z,12.42
2022-09-07T05:36:25.485Z,12.72
2022-09-07T05:38:52.971Z,12.80
2022-09-07T05:41:22.752Z,12.76
2022-09-07T05:46:37.713Z,13.03
2022-09-07T05:49:05.167Z,13.28
2022-09-07T05:51:33.972Z,13.33
2022-09-07T05:54:01.423Z,13.33
2022-09-07T05:56:28.845Z,13.51
2022-09-07T05:58:56.308Z,13.63
2022-09-07T06:01:23.734Z,13.81
2022-09-07T06:03:51.215Z,13.84
2022-09-07T06:06:19.713Z,14.02
2022-09-07T06:08:50.248Z,14.10
2022-09-07T06:11:19.926Z,14.33
2022-09-07T06:13:47.510Z,14.43
2022-09-07T06:16:15.967Z,14.59
2022-09-07T06:18:45.388Z,14.90
2022-09-07T06:21:14.358Z,15.06
2022-09-07T06:23:43.456Z,15.33
2022-09-07T06:26:13.608Z,15.59
2022-09-07T06:28:43.017Z,15.79
2022-09-07T06:31:12.876Z,16.02
2022-09-07T06:33:40.990Z,16.12
2022-09-07T06:36:11.921Z,16.20
2022-09-07T06:38:40.089Z,16.41
2022-09-07T06:43:58.724Z,16.69
2022-09-07T06:49:14.095Z,17.00
2022-09-07T06:51:41.550Z,17.26
2022-09-07T06:56:57.811Z,17.55
2022-09-07T06:59:26.683Z,17.67
2022-09-07T07:01:54.128Z,17.73
2022-09-07T07:04:21.752Z,17.91
2022-09-07T07:06:49.217Z,17.90
2022-09-07T07:09:16.685Z,18.06
2022-09-07T07:11:47.219Z,18.17
2022-09-07T07:14:15.406Z,18.28
2022-09-07T07:16:44.283Z,18.31
2022-09-07T07:19:11.760Z,18.23
2022-09-07T07:22:03.441Z,18.45
2022-09-07T07:24:26.609Z,18.45
2022-09-07T07:26:54.063Z,18.57
2022-09-07T07:29:23.879Z,18.70
2022-09-07T07:31:53.868Z,18.75
2022-09-07T07:34:21.420Z,18.75
2022-09-07T07:36:48.859Z,18.98
2022-09-07T07:42:05.909Z,18.97
2022-09-07T07:44:33.934Z,18.93
2022-09-07T07:47:02.881Z,19.13
2022-09-07T07:49:30.820Z,19.10
2022-09-07T07:54:45.854Z,19.38
2022-09-07T07:57:13.295Z,19.41
2022-09-07T07:59:40.974Z,19.45
2022-09-07T08:02:15.577Z,19.17
2022-09-07T08:04:43.327Z,18.96
2022-09-07T08:07:11.802Z,18.80
2022-09-07T08:09:41.233Z,18.63
2022-09-07T08:12:09.629Z,18.71
2022-09-07T08:14:40.565Z,18.85
2022-09-07T08:17:09.945Z,18.74
2022-09-07T08:19:37.581Z,18.77
2022-09-07T08:22:05.012Z,18.90
2022-09-07T08:24:32.516Z,18.88
2022-09-07T08:27:00.040Z,18.98
2022-09-07T08:29:31.256Z,19.03
2022-09-07T08:32:01.271Z,19.14
2022-09-07T08:34:30.170Z,19.12
2022-09-07T08:36:57.587Z,19.11
2022-09-07T08:39:25.024Z,19.16
2022-09-07T08:42:04.624Z,19.24
2022-09-07T08:44:35.781Z,19.31
2022-09-07T08:47:13.078Z,19.12
2022-09-07T08:49:47.636Z,19.22
2022-09-07T08:52:20.239Z,19.17
2022-09-07T08:55:03.534Z,19.17
2022-09-07T08:57:37.732Z,19.14
2022-09-07T09:00:08.695Z,19.20
2022-09-07T09:02:42.223Z,19.38
2022-09-07T09:05:25.515Z,19.40
2022-09-07T09:08:05.851Z,19.32
2022-09-07T09:10:41.371Z,19.26
2022-09-07T09:13:18.114Z,19.10
2022-09-07T09:15:53.672Z,19.04
2022-09-07T09:18:42.131Z,18.89
2022-09-07T09:21:15.409Z,18.87
2022-09-07T09:23:45.522Z,18.90
2022-09-07T09:26:17.463Z,18.90
2022-09-07T09:28:44.889Z,18.91
2022-09-07T09:31:18.802Z,18.98
2022-09-07T09:34:11.089Z,19.01
2022-09-07T09:36:45.439Z,19.03
2022-09-07T09:39:31.427Z,19.11
2022-09-07T09:42:13.904Z,19.18
2022-09-07T09:44:42.843Z,19.14
2022-09-07T09:47:32.310Z,19.20
2022-09-07T09:50:02.969Z,19.05
2022-09-07T09:52:43.946Z,19.08
2022-09-07T09:55:34.525Z,19.11
2022-09-07T10:04:02.734Z,19.74
2022-09-07T10:06:32.025Z,19.73
2022-09-07T10:09:02.799Z,19.64
2022-09-07T10:14:34.525Z,19.63
2022-09-07T10:17:11.016Z,19.71
2022-09-07T10:19:40.419Z,19.72
2022-09-07T10:22:22.981Z,19.84
2022-09-07T10:24:52.354Z,19.80
2022-09-07T10:27:21.786Z,20.03
2022-09-07T10:29:49.228Z,20.30
2022-09-07T10:32:28.389Z,20.35
2022-09-07T10:35:07.520Z,20.27
2022-09-07T10:37:45.216Z,20.42
2022-09-07T10:40:25.866Z,20.56
2022-09-07T10:46:03.012Z,20.58
2022-09-07T10:48:38.148Z,20.67
2022-09-07T10:51:14.641Z,20.62
2022-09-07T10:54:29.982Z,20.53
2022-09-07T10:56:44.452Z,20.86
2022-09-07T11:00:07.423Z,21.02
2022-09-07T11:02:25.915Z,20.92
2022-09-07T11:05:04.663Z,20.74
2022-09-07T11:07:55.467Z,20.82
2022-09-07T11:10:33.314Z,20.82
2022-09-07T11:13:05.981Z,20.86
2022-09-07T11:15:40.850Z,21.18
2022-09-07T11:18:13.976Z,21.03
2022-09-07T11:20:47.064Z,20.98
2022-09-07T11:23:20.440Z,20.77
2022-09-07T11:25:57.871Z,20.86
2022-09-07T11:28:29.513Z,20.99
2022-09-07T11:31:01.103Z,21.16
2022-09-07T11:33:32.858Z,20.65
2022-09-07T11:36:03.661Z,20.56
2022-09-07T11:38:36.032Z,20.68
2022-09-07T11:41:17.970Z,20.72
2022-09-07T11:43:50.269Z,20.67
2022-09-07T11:46:24.161Z,20.97
2022-09-07T11:48:54.815Z,21.07
2022-09-07T11:51:27.150Z,21.24
2022-09-07T11:53:58.033Z,21.33
2022-09-07T11:56:29.852Z,21.25
2022-09-07T11:59:32.514Z,21.04
2022-09-07T12:02:42.098Z,21.44
2022-09-07T12:05:25.129Z,21.67
2022-09-07T12:08:09.680Z,21.78
2022-09-07T12:10:51.300Z,21.84
2022-09-07T12:13:55.792Z,21.79
2022-09-07T12:16:39.275Z,21.63
2022-09-07T12:19:18.739Z,21.36
2022-09-07T12:21:50.270Z,21.50
2022-09-07T12:24:44.083Z,21.57
2022-09-07T12:27:27.673Z,21.61
2022-09-07T12:30:29.008Z,21.39
2022-09-07T12:33:05.819Z,21.39
2022-09-07T12:35:39.602Z,21.16
2022-09-07T12:38:40.210Z,21.40
2022-09-07T12:41:23.034Z,21.61
2022-09-07T12:44:07.324Z,21.27
2022-09-07T12:46:55.728Z,21.29
2022-09-07T12:49:47.891Z,21.46
2022-09-07T12:52:37.901Z,21.63
2022-09-07T12:55:28.074Z,21.55
2022-09-07T12:58:05.062Z,21.57
2022-09-07T13:00:45.810Z,21.82
2022-09-07T13:09:32.133Z,22.03
2022-09-07T13:12:00.548Z,21.82
2022-09-07T13:14:29.855Z,21.84
2022-09-07T13:17:28.063Z,22.32
2022-09-07T13:20:17.715Z,22.63
2022-09-07T13:23:19.307Z,22.44
2022-09-07T13:25:50.402Z,22.37
2022-09-07T13:28:26.333Z,22.40
2022-09-07T13:31:06.750Z,22.30
2022-09-07T13:33:52.755Z,22.76
2022-09-07T13:36:25.436Z,22.84
2022-09-07T13:38:55.372Z,22.99
2022-09-07T13:41:26.490Z,23.01
2022-09-07T13:44:00.194Z,23.34
2022-09-07T13:46:40.239Z,23.41
2022-09-07T13:49:18.724Z,23.33
2022-09-07T13:51:54.004Z,23.25
2022-09-07T13:54:31.905Z,22.99
2022-09-07T13:57:10.339Z,22.98
2022-09-07T13:59:38.076Z,23.10
2022-09-07T14:02:23.543Z,23.12
2022-09-07T14:04:54.681Z,23.37
2022-09-07T14:07:24.491Z,23.59
2022-09-07T14:10:12.800Z,23.54
2022-09-07T14:12:46.883Z,23.28
2022-09-07T14:15:29.976Z,23.02
2022-09-07T14:18:04.949Z,23.04
2022-09-07T14:20:37.761Z,23.24
2022-09-07T14:23:12.014Z,23.41
2022-09-07T14:28:34.405Z,23.74
2022-09-07T14:31:02.240Z,24.06
2022-09-07T14:33:31.122Z,23.86
2022-09-07T14:35:59.404Z,24.75
2022-09-07T14:41:19.644Z,25.76
2022-09-07T14:43:58.016Z,26.08
2022-09-07T14:46:27.883Z,26.19
2022-09-07T14:48:57.772Z,25.49
2022-09-07T14:51:35.062Z,25.14
2022-09-07T14:54:05.814Z,25.05
2022-09-07T14:56:36.240Z,24.64
2022-09-07T14:59:26.972Z,24.16
2022-09-07T15:02:23.901Z,24.32
2022-09-07T15:05:18.834Z,24.36
2022-09-07T15:07:48.721Z,24.55
2022-09-07T15:10:26.745Z,24.65
2022-09-07T15:12:57.025Z,24.51
2022-09-07T15:15:27.173Z,24.35
2022-09-07T15:17:58.974Z,24.54
2022-09-07T15:20:39.609Z,24.08
2022-09-07T15:23:10.781Z,23.97
2022-09-07T15:25:40.400Z,24.07
2022-09-07T15:33:59.917Z,24.38
2022-09-07T15:36:28.657Z,24.23
2022-09-07T15:38:59.893Z,24.37
2022-09-07T15:41:28.457Z,25.04
2022-09-07T15:43:57.507Z,25.37
2022-09-07T15:46:25.343Z,25.18
2022-09-07T15:48:55.359Z,25.17
2022-09-07T15:54:13.708Z,23.92
2022-09-07T15:56:42.805Z,23.52
2022-09-07T15:59:12.761Z,23.14
2022-09-07T16:01:56.014Z,23.48
2022-09-07T16:04:24.314Z,24.30
2022-09-07T16:06:51.855Z,24.57
2022-09-07T16:09:21.785Z,25.09
2022-09-07T16:11:51.196Z,25.22
2022-09-07T16:14:20.219Z,24.30
2022-09-07T16:19:35.993Z,24.98
2022-09-07T16:22:04.034Z,25.54
2022-09-07T16:24:31.601Z,25.09
2022-09-07T16:26:59.037Z,24.85
2022-09-07T16:29:27.971Z,25.01
2022-09-07T16:34:42.847Z,25.28
2022-09-07T16:37:10.355Z,25.46
2022-09-07T16:39:37.864Z,24.55
2022-09-07T16:42:05.919Z,23.77
2022-09-07T16:44:34.946Z,24.35
2022-09-07T16:47:02.488Z,24.97
2022-09-07T16:49:29.912Z,25.03
2022-09-07T16:51:58.948Z,24.83
2022-09-07T16:54:26.460Z,24.87
2022-09-07T16:56:53.894Z,24.89
2022-09-07T16:59:26.112Z,24.61
2022-09-07T17:01:55.284Z,24.58
2022-09-07T17:04:23.005Z,24.54
2022-09-07T17:06:52.334Z,24.30
2022-09-07T17:09:20.461Z,24.03
2022-09-07T17:11:47.885Z,24.11
2022-09-07T17:14:15.319Z,23.95
2022-09-07T17:16:43.052Z,23.81
2022-09-07T17:19:31.659Z,23.94
2022-09-07T17:21:59.867Z,23.72
2022-09-07T17:24:29.582Z,23.57
2022-09-07T17:26:59.611Z,23.39
2022-09-07T17:29:30.215Z,23.33
2022-09-07T17:34:47.850Z,22.98
2022-09-07T17:37:15.388Z,22.71
2022-09-07T17:39:42.947Z,22.14
2022-09-07T17:42:10.461Z,21.85
2022-09-07T17:44:38.526Z,21.38
2022-09-07T17:47:06.436Z,20.82
2022-09-07T17:49:33.899Z,20.34
2022-09-07T17:52:03.180Z,20.20
2022-09-07T17:54:30.964Z,20.26
2022-09-07T17:56:58.399Z,20.15
2022-09-07T18:02:14.338Z,19.85
2022-09-07T18:04:42.567Z,19.76
2022-09-07T18:07:11.779Z,19.73
2022-09-07T18:09:39.390Z,19.55
2022-09-07T18:12:07.304Z,19.47
2022-09-07T18:14:34.827Z,19.27
2022-09-07T18:17:02.445Z,19.17
2022-09-07T18:19:29.937Z,19.02
2022-09-07T18:21:57.657Z,18.90
2022-09-07T18:24:27.283Z,18.82
2022-09-07T18:26:55.085Z,18.70
2022-09-07T18:29:30.071Z,18.64
2022-09-07T18:32:00.064Z,18.53
2022-09-07T18:34:28.571Z,18.44
2022-09-07T18:36:57.091Z,18.45
2022-09-07T18:39:25.915Z,18.32
2022-09-07T18:41:54.719Z,18.31
2022-09-07T18:47:17.592Z,18.06
2022-09-07T18:49:48.856Z,18.05
2022-09-07T18:55:06.978Z,18.07
2022-09-07T18:57:36.144Z,18.07
2022-09-07T19:00:05.069Z,18.14
2022-09-07T19:02:33.320Z,18.07
2022-09-07T19:07:48.220Z,17.86
2022-09-07T19:10:17.670Z,17.81
2022-09-07T19:12:46.045Z,17.72
2022-09-07T19:15:14.031Z,17.64
2022-09-07T19:17:41.515Z,17.63
2022-09-07T19:20:10.211Z,17.60
2022-09-07T19:22:37.664Z,17.54
2022-09-07T19:25:06.004Z,17.41
2022-09-07T19:27:34.861Z,17.35
2022-09-07T19:30:02.748Z,17.20
2022-09-07T19:32:30.511Z,16.89
2022-09-07T19:34:57.922Z,16.87
2022-09-07T19:37:26.072Z,16.85
2022-09-07T19:39:54.915Z,16.81
2022-09-07T19:42:23.495Z,16.79
2022-09-07T19:44:53.005Z,16.76
2022-09-07T19:47:20.893Z,16.66
2022-09-07T19:49:48.518Z,16.58
2022-09-07T19:52:16.481Z,16.45
2022-09-07T19:54:44.193Z,16.52
2022-09-07T19:57:11.610Z,16.53
2022-09-07T19:59:39.329Z,16.52
2022-09-07T20:02:09.877Z,16.53
2022-09-07T20:04:37.292Z,16.50
2022-09-07T20:07:06.515Z,16.38
2022-09-07T20:09:33.965Z,16.24
2022-09-07T20:12:03.621Z,16.12
2022-09-07T20:14:31.077Z,16.18
2022-09-07T20:16:58.537Z,15.94
2022-09-07T20:19:27.455Z,15.52
2022-09-07T20:21:55.636Z,15.59
2022-09-07T20:24:23.245Z,15.38
2022-09-07T20:26:50.659Z,15.39
2022-09-07T20:29:33.813Z,15.35
2022-09-07T20:32:01.881Z,15.28
2022-09-07T20:34:32.034Z,15.27
2022-09-07T20:36:59.484Z,15.27
2022-09-07T20:39:27.034Z,15.27
2022-09-07T20:41:54.519Z,15.19
2022-09-07T20:44:21.986Z,15.13
2022-09-07T20:46:49.753Z,15.04
2022-09-07T20:49:17.225Z,15.00
2022-09-07T20:51:45.976Z,14.96
2022-09-07T20:54:13.507Z,14.88
2022-09-07T20:56:40.937Z,14.90
2022-09-07T20:59:08.403Z,14.79
2022-09-07T21:01:36.471Z,14.61
2022-09-07T21:04:05.981Z,14.46
2022-09-07T21:06:33.901Z,14.48
2022-09-07T21:09:02.754Z,14.43
2022-09-07T21:11:32.070Z,14.40
2022-09-07T21:14:01.034Z,14.29
2022-09-07T21:16:29.033Z,14.24
2022-09-07T21:18:58.047Z,14.24
2022-09-07T21:21:27.456Z,14.23
2022-09-07T21:23:59.315Z,14.22
2022-09-07T21:26:29.146Z,14.21
2022-09-07T21:28:57.729Z,14.18
2022-09-07T21:31:26.454Z,14.07
2022-09-07T21:33:55.292Z,14.03
2022-09-07T21:36:22.780Z,13.92
2022-09-07T21:38:51.129Z,13.90
2022-09-07T21:41:20.320Z,13.86
2022-09-07T21:43:49.062Z,13.56
2022-09-07T21:46:18.100Z,13.59
2022-09-07T21:48:46.591Z,13.51
2022-09-07T21:51:14.683Z,13.54
2022-09-07T21:53:42.481Z,13.68
2022-09-07T21:56:12.455Z,13.70
2022-09-07T21:58:40.337Z,13.41
2022-09-07T22:01:29.340Z,13.81
2022-09-07T22:03:59.188Z,13.86
2022-09-07T22:06:28.201Z,13.92
2022-09-07T22:08:56.625Z,13.88
2022-09-07T22:11:25.573Z,13.95
2022-09-07T22:13:55.411Z,13.99
2022-09-07T22:16:23.360Z,14.10
2022-09-07T22:18:52.248Z,14.07
2022-09-07T22:21:22.231Z,14.15
2022-09-07T22:23:51.838Z,14.07
2022-09-07T22:26:21.691Z,14.12
2022-09-07T22:28:49.696Z,14.08
2022-09-07T22:31:19.271Z,14.15
2022-09-07T22:33:48.088Z,14.14
2022-09-07T22:36:19.055Z,14.28
2022-09-07T22:38:49.398Z,14.32
2022-09-07T22:41:19.816Z,14.32
2022-09-07T22:43:48.161Z,14.45
2022-09-07T22:46:15.708Z,14.53
2022-09-07T22:48:43.908Z,14.51
2022-09-07T22:51:12.430Z,14.47
2022-09-07T22:53:42.890Z,14.41
2022-09-07T22:56:12.120Z,14.37
2022-09-07T22:58:39.939Z,14.38
2022-09-07T23:01:08.043Z,14.42
2022-09-07T23:03:36.192Z,14.34
2022-09-07T23:06:04.042Z,14.44
2022-09-07T23:08:31.817Z,14.45
2022-09-07T23:11:05.128Z,14.36
2022-09-07T23:13:33.506Z,14.32
2022-09-07T23:16:05.448Z,14.33
2022-09-07T23:18:33.147Z,14.35
2022-09-07T23:21:01.255Z,14.38
2022-09-07T23:23:29.681Z,14.23
2022-09-07T23:25:57.305Z,14.09
2022-09-07T23:28:26.057Z,13.92
2022-09-07T23:30:53.516Z,13.86
2022-09-07T23:33:20.952Z,13.89
2022-09-07T23:35:57.019Z,13.78
2022-09-07T23:38:24.927Z,13.72
2022-09-07T23:40:52.840Z,13.74
2022-09-07T23:43:20.343Z,13.59
2022-09-07T23:45:49.594Z,13.59
2022-09-07T23:48:17.491Z,13.60
2022-09-07T23:50:46.092Z,13.63
2022-09-07T23:53:14.356Z,13.79
2022-09-07T23:55:42.785Z,13.90
2022-09-07T23:58:10.737Z,13.86
